sensor_id;sensor_type;location;lat;lon;timestamp;temperature;humidity
27978;DHT22;15314;49.248;6.968;2022-10-26T00:00:35;14.50;99.90
27978;DHT22;15314;49.248;6.968;2022-10-26T00:01:35;14.50;99.90
27978;DHT22;15314;49.248;6.968;2022-10-26T00:02:36;14.50;99.90
27978;DHT22;15314;49.248;6.968;2022-10-26T00:03:37;14.50;99.90
27978;DHT22;15314;49.248;6.968;2022-10-26T00:04:38;14.50;99.90
27978;DHT22;15314;49.248;6.968;2022-10-26T00:05:39;14.50;99.90
27978;DHT22;15314;49.248;6.968;2022-10-26T00:06:39;14.50;99.90
27978;DHT22;15314;49.248;6.968;2022-10-26T00:07:40;14.50;99.90
27978;DHT22;15314;49.248;6.968;2022-10-26T00:08:41;14.50;99.90
27978;DHT22;15314;49.248;6.968;2022-10-26T00:09:41;14.50;99.90
27978;DHT22;15314;49.248;6.968;2022-10-26T00:10:42;14.50;99.90
27978;DHT22;15314;49.248;6.968;2022-10-26T00:11:43;14.50;99.90
27978;DHT22;15314;49.248;6.968;2022-10-26T00:12:43;14.50;99.90
27978;DHT22;15314;49.248;6.968;2022-10-26T00:13:47;14.50;99.90
27978;DHT22;15314;49.248;6.968;2022-10-26T00:14:48;14.50;99.90
27978;DHT22;15314;49.248;6.968;2022-10-26T00:15:48;14.60;99.90
27978;DHT22;15314;49.248;6.968;2022-10-26T00:16:49;14.60;99.90
27978;DHT22;15314;49.248;6.968;2022-10-26T00:17:49;14.50;99.90
27978;DHT22;15314;49.248;6.968;2022-10-26T00:18:50;14.50;99.90
27978;DHT22;15314;49.248;6.968;2022-10-26T00:19:51;14.50;99.90
27978;DHT22;15314;49.248;6.968;2022-10-26T00:20:51;14.50;99.90
27978;DHT22;15314;49.248;6.968;2022-10-26T00:21:52;14.60;99.90
27978;DHT22;15314;49.248;6.968;2022-10-26T00:22:52;14.50;99.90
27978;DHT22;15314;49.248;6.968;2022-10-26T00:23:53;14.60;99.90
27978;DHT22;15314;49.248;6.968;2022-10-26T00:24:54;14.60;99.90
27978;DHT22;15314;49.248;6.968;2022-10-26T00:25:55;14.50;99.90
27978;DHT22;15314;49.248;6.968;2022-10-26T00:26:56;14.50;99.90
27978;DHT22;15314;49.248;6.968;2022-10-26T00:27:56;14.60;99.90
27978;DHT22;15314;49.248;6.968;2022-10-26T00:28:57;14.50;99.90
27978;DHT22;15314;49.248;6.968;2022-10-26T00:29:57;14.40;99.90
27978;DHT22;15314;49.248;6.968;2022-10-26T00:31:12;14.40;99.90
27978;DHT22;15314;49.248;6.968;2022-10-26T00:32:13;14.50;99.90
27978;DHT22;15314;49.248;6.968;2022-10-26T00:33:14;14.50;99.90
27978;DHT22;15314;49.248;6.968;2022-10-26T00:34:14;14.50;99.90
27978;DHT22;15314;49.248;6.968;2022-10-26T00:35:15;14.60;99.90
27978;DHT22;15314;49.248;6.968;2022-10-26T00:36:16;14.50;99.90
27978;DHT22;15314;49.248;6.968;2022-10-26T00:37:17;14.60;99.90
27978;DHT22;15314;49.248;6.968;2022-10-26T00:38:18;14.60;99.90
27978;DHT22;15314;49.248;6.968;2022-10-26T00:39:19;14.60;99.90
27978;DHT22;15314;49.248;6.968;2022-10-26T00:40:19;14.60;99.90
27978;DHT22;15314;49.248;6.968;2022-10-26T00:41:25;14.70;99.90
27978;DHT22;15314;49.248;6.968;2022-10-26T00:42:26;14.80;99.90
27978;DHT22;15314;49.248;6.968;2022-10-26T00:45:49;14.50;99.90
27978;DHT22;15314;49.248;6.968;2022-10-26T00:46:51;14.60;99.90
27978;DHT22;15314;49.248;6.968;2022-10-26T00:48:58;14.60;99.90
27978;DHT22;15314;49.248;6.968;2022-10-26T00:49:32;14.60;99.90
27978;DHT22;15314;49.248;6.968;2022-10-26T00:50:39;14.60;99.90
27978;DHT22;15314;49.248;6.968;2022-10-26T00:51:47;14.60;99.90
27978;DHT22;15314;49.248;6.968;2022-10-26T00:52:49;14.60;99.90
27978;DHT22;15314;49.248;6.968;2022-10-26T00:53:51;14.60;99.90
27978;DHT22;15314;49.248;6.968;2022-10-26T00:54:53;14.50;99.90
27978;DHT22;15314;49.248;6.968;2022-10-26T00:55:54;14.50;99.90
27978;DHT22;15314;49.248;6.968;2022-10-26T00:56:55;14.40;99.90
27978;DHT22;15314;49.248;6.968;2022-10-26T00:57:55;14.40;99.90
27978;DHT22;15314;49.248;6.968;2022-10-26T00:59:00;14.40;99.90
27978;DHT22;15314;49.248;6.968;2022-10-26T01:00:03;14.40;99.90
27978;DHT22;15314;49.248;6.968;2022-10-26T01:01:04;14.40;99.90
27978;DHT22;15314;49.248;6.968;2022-10-26T01:02:05;14.40;99.90
27978;DHT22;15314;49.248;6.968;2022-10-26T01:03:06;14.40;99.90
27978;DHT22;15314;49.248;6.968;2022-10-26T01:04:07;14.40;99.90
27978;DHT22;15314;49.248;6.968;2022-10-26T01:05:08;14.40;99.90
27978;DHT22;15314;49.248;6.968;2022-10-26T01:06:11;14.30;99.90
27978;DHT22;15314;49.248;6.968;2022-10-26T01:07:13;14.40;99.90
27978;DHT22;15314;49.248;6.968;2022-10-26T01:08:16;14.40;99.90
27978;DHT22;15314;49.248;6.968;2022-10-26T01:09:18;14.40;99.90
27978;DHT22;15314;49.248;6.968;2022-10-26T01:10:20;14.40;99.90
27978;DHT22;15314;49.248;6.968;2022-10-26T01:11:20;14.50;99.90
27978;DHT22;15314;49.248;6.968;2022-10-26T01:12:21;14.50;99.90
27978;DHT22;15314;49.248;6.968;2022-10-26T01:13:22;14.40;99.90
27978;DHT22;15314;49.248;6.968;2022-10-26T01:14:23;14.40;99.90
27978;DHT22;15314;49.248;6.968;2022-10-26T01:17:21;14.30;99.90
27978;DHT22;15314;49.248;6.968;2022-10-26T01:18:35;14.30;99.90
27978;DHT22;15314;49.248;6.968;2022-10-26T01:22:19;14.30;99.90
27978;DHT22;15314;49.248;6.968;2022-10-26T01:23:37;14.30;99.90
27978;DHT22;15314;49.248;6.968;2022-10-26T01:31:11;14.20;99.90
27978;DHT22;15314;49.248;6.968;2022-10-26T01:32:36;14.20;99.90
27978;DHT22;15314;49.248;6.968;2022-10-26T01:33:58;14.20;99.90
27978;DHT22;15314;49.248;6.968;2022-10-26T01:35:17;14.20;99.90
27978;DHT22;15314;49.248;6.968;2022-10-26T01:36:23;14.20;99.90
27978;DHT22;15314;49.248;6.968;2022-10-26T01:37:29;14.20;99.90
27978;DHT22;15314;49.248;6.968;2022-10-26T01:39:52;14.30;99.90
27978;DHT22;15314;49.248;6.968;2022-10-26T01:40:59;14.40;99.90
27978;DHT22;15314;49.248;6.968;2022-10-26T01:42:02;14.50;99.90
27978;DHT22;15314;49.248;6.968;2022-10-26T01:43:07;14.50;99.90
27978;DHT22;15314;49.248;6.968;2022-10-26T01:44:23;14.50;99.90
27978;DHT22;15314;49.248;6.968;2022-10-26T01:45:25;14.60;99.90
27978;DHT22;15314;49.248;6.968;2022-10-26T01:46:29;14.60;99.90
27978;DHT22;15314;49.248;6.968;2022-10-26T01:47:33;14.60;99.90
27978;DHT22;15314;49.248;6.968;2022-10-26T01:48:36;14.60;99.90
27978;DHT22;15314;49.248;6.968;2022-10-26T01:49:40;14.50;99.90
27978;DHT22;15314;49.248;6.968;2022-10-26T01:50:44;14.40;99.90
27978;DHT22;15314;49.248;6.968;2022-10-26T01:51:48;14.40;99.90
27978;DHT22;15314;49.248;6.968;2022-10-26T01:52:50;14.40;99.90
27978;DHT22;15314;49.248;6.968;2022-10-26T01:53:50;14.30;99.90
27978;DHT22;15314;49.248;6.968;2022-10-26T01:54:51;14.40;99.90
27978;DHT22;15314;49.248;6.968;2022-10-26T01:55:59;14.40;99.90
27978;DHT22;15314;49.248;6.968;2022-10-26T01:57:03;14.50;99.90
27978;DHT22;15314;49.248;6.968;2022-10-26T02:00:46;14.40;99.90
27978;DHT22;15314;49.248;6.968;2022-10-26T02:03:36;14.40;99.90
27978;DHT22;15314;49.248;6.968;2022-10-26T02:05:07;14.50;99.90
27978;DHT22;15314;49.248;6.968;2022-10-26T02:06:21;14.50;99.90
27978;DHT22;15314;49.248;6.968;2022-10-26T02:08:07;14.50;99.90
27978;DHT22;15314;49.248;6.968;2022-10-26T02:09:36;14.50;99.90
27978;DHT22;15314;49.248;6.968;2022-10-26T02:11:44;14.50;99.90
27978;DHT22;15314;49.248;6.968;2022-10-26T02:17:59;14.40;99.90
27978;DHT22;15314;49.248;6.968;2022-10-26T02:19:24;14.30;99.90
27978;DHT22;15314;49.248;6.968;2022-10-26T02:20:32;14.30;99.90
27978;DHT22;15314;49.248;6.968;2022-10-26T02:21:42;14.30;99.90
27978;DHT22;15314;49.248;6.968;2022-10-26T02:22:46;14.30;99.90
27978;DHT22;15314;49.248;6.968;2022-10-26T02:23:48;14.30;99.90
27978;DHT22;15314;49.248;6.968;2022-10-26T02:24:52;14.30;99.90
27978;DHT22;15314;49.248;6.968;2022-10-26T02:25:58;14.20;99.90
27978;DHT22;15314;49.248;6.968;2022-10-26T02:27:00;14.20;99.90
27978;DHT22;15314;49.248;6.968;2022-10-26T02:28:05;14.30;99.90
27978;DHT22;15314;49.248;6.968;2022-10-26T02:29:10;14.30;99.90
27978;DHT22;15314;49.248;6.968;2022-10-26T02:30:12;14.40;99.90
27978;DHT22;15314;49.248;6.968;2022-10-26T02:31:14;14.40;99.90
27978;DHT22;15314;49.248;6.968;2022-10-26T02:32:16;14.40;99.90
27978;DHT22;15314;49.248;6.968;2022-10-26T02:33:18;14.40;99.90
27978;DHT22;15314;49.248;6.968;2022-10-26T02:34:23;14.40;99.90
27978;DHT22;15314;49.248;6.968;2022-10-26T02:35:28;14.40;99.90
27978;DHT22;15314;49.248;6.968;2022-10-26T02:36:33;14.40;99.90
27978;DHT22;15314;49.248;6.968;2022-10-26T02:37:36;14.40;99.90
27978;DHT22;15314;49.248;6.968;2022-10-26T02:38:39;14.40;99.90
27978;DHT22;15314;49.248;6.968;2022-10-26T02:39:42;14.40;99.90
27978;DHT22;15314;49.248;6.968;2022-10-26T02:40:47;14.40;99.90
27978;DHT22;15314;49.248;6.968;2022-10-26T02:41:49;14.40;99.90
27978;DHT22;15314;49.248;6.968;2022-10-26T02:42:52;14.40;99.90
27978;DHT22;15314;49.248;6.968;2022-10-26T02:44:09;14.40;99.90
27978;DHT22;15314;49.248;6.968;2022-10-26T02:45:18;14.30;99.90
27978;DHT22;15314;49.248;6.968;2022-10-26T02:46:21;14.30;99.90
27978;DHT22;15314;49.248;6.968;2022-10-26T02:47:24;14.40;99.90
27978;DHT22;15314;49.248;6.968;2022-10-26T02:48:25;14.40;99.90
27978;DHT22;15314;49.248;6.968;2022-10-26T02:49:26;14.40;99.90
27978;DHT22;15314;49.248;6.968;2022-10-26T02:50:34;14.50;99.90
27978;DHT22;15314;49.248;6.968;2022-10-26T02:51:51;14.60;99.90
27978;DHT22;15314;49.248;6.968;2022-10-26T02:53:09;14.50;99.90
27978;DHT22;15314;49.248;6.968;2022-10-26T02:55:50;14.40;99.90
27978;DHT22;15314;49.248;6.968;2022-10-26T02:56:55;14.30;99.90
27978;DHT22;15314;49.248;6.968;2022-10-26T02:58:07;14.30;99.90
27978;DHT22;15314;49.248;6.968;2022-10-26T02:59:11;14.30;99.90
27978;DHT22;15314;49.248;6.968;2022-10-26T03:00:15;14.30;99.90
27978;DHT22;15314;49.248;6.968;2022-10-26T03:01:16;14.30;99.90
27978;DHT22;15314;49.248;6.968;2022-10-26T03:02:18;14.40;99.90
27978;DHT22;15314;49.248;6.968;2022-10-26T03:03:19;14.40;99.90
27978;DHT22;15314;49.248;6.968;2022-10-26T03:04:27;14.40;99.90
27978;DHT22;15314;49.248;6.968;2022-10-26T03:05:30;14.30;99.90
27978;DHT22;15314;49.248;6.968;2022-10-26T03:06:36;14.20;99.90
27978;DHT22;15314;49.248;6.968;2022-10-26T03:07:36;14.20;99.90
27978;DHT22;15314;49.248;6.968;2022-10-26T03:08:37;14.20;99.90
27978;DHT22;15314;49.248;6.968;2022-10-26T03:09:37;14.10;99.90
27978;DHT22;15314;49.248;6.968;2022-10-26T03:10:43;14.10;99.90
27978;DHT22;15314;49.248;6.968;2022-10-26T03:11:43;14.00;99.90
27978;DHT22;15314;49.248;6.968;2022-10-26T03:12:44;14.00;99.90
27978;DHT22;15314;49.248;6.968;2022-10-26T03:13:45;14.00;99.90
27978;DHT22;15314;49.248;6.968;2022-10-26T03:14:46;13.90;99.90
27978;DHT22;15314;49.248;6.968;2022-10-26T03:15:46;13.90;99.90
27978;DHT22;15314;49.248;6.968;2022-10-26T03:16:47;13.90;99.90
27978;DHT22;15314;49.248;6.968;2022-10-26T03:17:47;13.90;99.90
27978;DHT22;15314;49.248;6.968;2022-10-26T03:18:48;13.90;99.90
27978;DHT22;15314;49.248;6.968;2022-10-26T03:19:48;14.00;99.90
27978;DHT22;15314;49.248;6.968;2022-10-26T03:20:49;14.00;99.90
27978;DHT22;15314;49.248;6.968;2022-10-26T03:21:49;14.10;99.90
27978;DHT22;15314;49.248;6.968;2022-10-26T03:22:50;14.10;99.90
27978;DHT22;15314;49.248;6.968;2022-10-26T03:23:51;14.10;99.90
27978;DHT22;15314;49.248;6.968;2022-10-26T03:24:51;14.10;99.90
27978;DHT22;15314;49.248;6.968;2022-10-26T03:25:58;14.00;99.90
27978;DHT22;15314;49.248;6.968;2022-10-26T03:26:59;14.00;99.90
27978;DHT22;15314;49.248;6.968;2022-10-26T03:28:01;14.00;99.90
27978;DHT22;15314;49.248;6.968;2022-10-26T03:29:02;14.00;99.90
27978;DHT22;15314;49.248;6.968;2022-10-26T03:30:03;14.00;99.90
27978;DHT22;15314;49.248;6.968;2022-10-26T03:31:04;13.90;99.90
27978;DHT22;15314;49.248;6.968;2022-10-26T03:32:05;14.00;99.90
27978;DHT22;15314;49.248;6.968;2022-10-26T03:33:06;13.90;99.90
27978;DHT22;15314;49.248;6.968;2022-10-26T03:34:07;14.10;99.90
27978;DHT22;15314;49.248;6.968;2022-10-26T03:35:07;14.00;99.90
27978;DHT22;15314;49.248;6.968;2022-10-26T03:36:08;14.10;99.90
27978;DHT22;15314;49.248;6.968;2022-10-26T03:37:09;14.10;99.90
27978;DHT22;15314;49.248;6.968;2022-10-26T03:38:09;14.10;99.90
27978;DHT22;15314;49.248;6.968;2022-10-26T03:39:10;14.10;99.90
27978;DHT22;15314;49.248;6.968;2022-10-26T03:40:11;14.20;99.90
27978;DHT22;15314;49.248;6.968;2022-10-26T03:41:12;14.20;99.90
27978;DHT22;15314;49.248;6.968;2022-10-26T03:42:12;14.20;99.90
27978;DHT22;15314;49.248;6.968;2022-10-26T03:43:13;14.20;99.90
27978;DHT22;15314;49.248;6.968;2022-10-26T03:44:13;14.20;99.90
27978;DHT22;15314;49.248;6.968;2022-10-26T03:45:14;14.10;99.90
27978;DHT22;15314;49.248;6.968;2022-10-26T03:46:14;14.20;99.90
27978;DHT22;15314;49.248;6.968;2022-10-26T03:47:15;14.20;99.90
27978;DHT22;15314;49.248;6.968;2022-10-26T03:48:16;14.20;99.90
27978;DHT22;15314;49.248;6.968;2022-10-26T03:49:16;14.10;99.90
27978;DHT22;15314;49.248;6.968;2022-10-26T03:50:19;14.10;99.90
27978;DHT22;15314;49.248;6.968;2022-10-26T03:51:20;14.10;99.90
27978;DHT22;15314;49.248;6.968;2022-10-26T03:52:20;14.10;99.90
27978;DHT22;15314;49.248;6.968;2022-10-26T03:53:23;14.10;99.90
27978;DHT22;15314;49.248;6.968;2022-10-26T03:54:24;14.10;99.90
27978;DHT22;15314;49.248;6.968;2022-10-26T03:55:24;14.10;99.90
27978;DHT22;15314;49.248;6.968;2022-10-26T03:56:25;14.10;99.90
27978;DHT22;15314;49.248;6.968;2022-10-26T03:57:26;14.10;99.90
27978;DHT22;15314;49.248;6.968;2022-10-26T03:58:26;14.10;99.90
27978;DHT22;15314;49.248;6.968;2022-10-26T03:59:27;14.10;99.90
27978;DHT22;15314;49.248;6.968;2022-10-26T04:00:27;14.10;99.90
27978;DHT22;15314;49.248;6.968;2022-10-26T04:01:28;14.10;99.90
27978;DHT22;15314;49.248;6.968;2022-10-26T04:02:29;14.10;99.90
27978;DHT22;15314;49.248;6.968;2022-10-26T04:03:29;14.00;99.90
27978;DHT22;15314;49.248;6.968;2022-10-26T04:04:30;14.00;99.90
27978;DHT22;15314;49.248;6.968;2022-10-26T04:05:31;14.00;99.90
27978;DHT22;15314;49.248;6.968;2022-10-26T04:06:32;13.90;99.90
27978;DHT22;15314;49.248;6.968;2022-10-26T04:07:32;13.90;99.90
27978;DHT22;15314;49.248;6.968;2022-10-26T04:08:33;13.90;99.90
27978;DHT22;15314;49.248;6.968;2022-10-26T04:09:34;14.00;99.90
27978;DHT22;15314;49.248;6.968;2022-10-26T04:10:35;14.00;99.90
27978;DHT22;15314;49.248;6.968;2022-10-26T04:11:36;14.00;99.90
27978;DHT22;15314;49.248;6.968;2022-10-26T04:12:37;14.10;99.90
27978;DHT22;15314;49.248;6.968;2022-10-26T04:13:38;14.00;99.90
27978;DHT22;15314;49.248;6.968;2022-10-26T04:14:38;14.00;99.90
27978;DHT22;15314;49.248;6.968;2022-10-26T04:15:39;14.00;99.90
27978;DHT22;15314;49.248;6.968;2022-10-26T04:16:39;14.00;99.90
27978;DHT22;15314;49.248;6.968;2022-10-26T04:17:40;14.00;99.90
27978;DHT22;15314;49.248;6.968;2022-10-26T04:18:41;14.10;99.90
27978;DHT22;15314;49.248;6.968;2022-10-26T04:19:41;14.10;99.90
27978;DHT22;15314;49.248;6.968;2022-10-26T04:20:42;14.10;99.90
27978;DHT22;15314;49.248;6.968;2022-10-26T04:21:42;14.10;99.90
27978;DHT22;15314;49.248;6.968;2022-10-26T04:22:43;14.10;99.90
27978;DHT22;15314;49.248;6.968;2022-10-26T04:23:43;14.10;99.90
27978;DHT22;15314;49.248;6.968;2022-10-26T04:24:44;14.10;99.90
27978;DHT22;15314;49.248;6.968;2022-10-26T04:25:45;14.10;99.90
27978;DHT22;15314;49.248;6.968;2022-10-26T04:26:45;14.20;99.90
27978;DHT22;15314;49.248;6.968;2022-10-26T04:27:46;14.30;99.90
27978;DHT22;15314;49.248;6.968;2022-10-26T04:28:46;14.30;99.90
27978;DHT22;15314;49.248;6.968;2022-10-26T04:29:47;14.40;99.90
27978;DHT22;15314;49.248;6.968;2022-10-26T04:30:47;14.30;99.90
27978;DHT22;15314;49.248;6.968;2022-10-26T04:31:48;14.40;99.90
27978;DHT22;15314;49.248;6.968;2022-10-26T04:32:49;14.30;99.90
27978;DHT22;15314;49.248;6.968;2022-10-26T04:33:49;14.30;99.90
27978;DHT22;15314;49.248;6.968;2022-10-26T04:34:50;14.30;99.90
27978;DHT22;15314;49.248;6.968;2022-10-26T04:35:58;14.30;99.90
27978;DHT22;15314;49.248;6.968;2022-10-26T04:37:00;14.20;99.90
27978;DHT22;15314;49.248;6.968;2022-10-26T04:38:02;14.30;99.90
27978;DHT22;15314;49.248;6.968;2022-10-26T04:39:03;14.30;99.90
27978;DHT22;15314;49.248;6.968;2022-10-26T04:40:04;14.30;99.90
27978;DHT22;15314;49.248;6.968;2022-10-26T04:41:05;14.30;99.90
27978;DHT22;15314;49.248;6.968;2022-10-26T04:42:06;14.30;99.90
27978;DHT22;15314;49.248;6.968;2022-10-26T04:43:06;14.20;99.90
27978;DHT22;15314;49.248;6.968;2022-10-26T04:44:07;14.30;99.90
27978;DHT22;15314;49.248;6.968;2022-10-26T04:45:08;14.30;99.90
27978;DHT22;15314;49.248;6.968;2022-10-26T04:46:09;14.30;99.90
27978;DHT22;15314;49.248;6.968;2022-10-26T04:47:09;14.30;99.90
27978;DHT22;15314;49.248;6.968;2022-10-26T04:48:11;14.30;99.90
27978;DHT22;15314;49.248;6.968;2022-10-26T04:49:12;14.30;99.90
27978;DHT22;15314;49.248;6.968;2022-10-26T04:50:13;14.40;99.90
27978;DHT22;15314;49.248;6.968;2022-10-26T04:51:14;14.40;99.90
27978;DHT22;15314;49.248;6.968;2022-10-26T04:52:15;14.40;99.90
27978;DHT22;15314;49.248;6.968;2022-10-26T04:53:15;14.40;99.90
27978;DHT22;15314;49.248;6.968;2022-10-26T04:54:16;14.40;99.90
27978;DHT22;15314;49.248;6.968;2022-10-26T04:55:16;14.40;99.90
27978;DHT22;15314;49.248;6.968;2022-10-26T04:56:17;14.40;99.90
27978;DHT22;15314;49.248;6.968;2022-10-26T04:57:17;14.50;99.90
27978;DHT22;15314;49.248;6.968;2022-10-26T04:58:18;14.50;99.90
27978;DHT22;15314;49.248;6.968;2022-10-26T04:59:18;14.40;99.90
27978;DHT22;15314;49.248;6.968;2022-10-26T05:00:19;14.40;99.90
27978;DHT22;15314;49.248;6.968;2022-10-26T05:01:20;14.50;99.90
27978;DHT22;15314;49.248;6.968;2022-10-26T05:02:21;14.50;99.90
27978;DHT22;15314;49.248;6.968;2022-10-26T05:03:22;14.60;99.90
27978;DHT22;15314;49.248;6.968;2022-10-26T05:04:22;14.50;99.90
27978;DHT22;15314;49.248;6.968;2022-10-26T05:05:23;14.60;99.90
27978;DHT22;15314;49.248;6.968;2022-10-26T05:06:24;14.60;99.90
27978;DHT22;15314;49.248;6.968;2022-10-26T05:07:24;14.70;99.90
27978;DHT22;15314;49.248;6.968;2022-10-26T05:08:26;14.70;99.90
27978;DHT22;15314;49.248;6.968;2022-10-26T05:09:27;14.60;99.90
27978;DHT22;15314;49.248;6.968;2022-10-26T05:10:28;14.60;99.90
27978;DHT22;15314;49.248;6.968;2022-10-26T05:11:28;14.60;99.90
27978;DHT22;15314;49.248;6.968;2022-10-26T05:12:29;14.60;99.90
27978;DHT22;15314;49.248;6.968;2022-10-26T05:13:29;14.60;99.90
27978;DHT22;15314;49.248;6.968;2022-10-26T05:14:30;14.70;99.90
27978;DHT22;15314;49.248;6.968;2022-10-26T05:15:31;14.70;99.90
27978;DHT22;15314;49.248;6.968;2022-10-26T05:16:31;14.70;99.90
27978;DHT22;15314;49.248;6.968;2022-10-26T05:17:32;14.70;99.90
27978;DHT22;15314;49.248;6.968;2022-10-26T05:18:32;14.70;99.90
27978;DHT22;15314;49.248;6.968;2022-10-26T05:19:33;14.70;99.90
27978;DHT22;15314;49.248;6.968;2022-10-26T05:20:35;14.80;99.90
27978;DHT22;15314;49.248;6.968;2022-10-26T05:21:36;14.80;99.90
27978;DHT22;15314;49.248;6.968;2022-10-26T05:22:36;14.70;99.90
27978;DHT22;15314;49.248;6.968;2022-10-26T05:23:37;14.80;99.90
27978;DHT22;15314;49.248;6.968;2022-10-26T05:24:37;14.80;99.90
27978;DHT22;15314;49.248;6.968;2022-10-26T05:25:38;14.80;99.90
27978;DHT22;15314;49.248;6.968;2022-10-26T05:26:39;14.80;99.90
27978;DHT22;15314;49.248;6.968;2022-10-26T05:27:39;14.80;99.90
27978;DHT22;15314;49.248;6.968;2022-10-26T05:28:40;14.80;99.90
27978;DHT22;15314;49.248;6.968;2022-10-26T05:29:41;14.80;99.90
27978;DHT22;15314;49.248;6.968;2022-10-26T05:30:43;14.90;99.90
27978;DHT22;15314;49.248;6.968;2022-10-26T05:31:43;14.90;99.90
27978;DHT22;15314;49.248;6.968;2022-10-26T05:32:44;15.00;99.90
27978;DHT22;15314;49.248;6.968;2022-10-26T05:33:48;15.00;99.90
27978;DHT22;15314;49.248;6.968;2022-10-26T05:34:49;15.10;99.90
27978;DHT22;15314;49.248;6.968;2022-10-26T05:35:53;15.10;99.90
27978;DHT22;15314;49.248;6.968;2022-10-26T05:36:53;15.20;99.90
27978;DHT22;15314;49.248;6.968;2022-10-26T05:37:54;15.20;99.90
27978;DHT22;15314;49.248;6.968;2022-10-26T05:38:58;15.20;99.90
27978;DHT22;15314;49.248;6.968;2022-10-26T05:39:59;15.40;99.90
27978;DHT22;15314;49.248;6.968;2022-10-26T05:40:59;15.30;99.90
27978;DHT22;15314;49.248;6.968;2022-10-26T05:42:03;15.30;99.90
27978;DHT22;15314;49.248;6.968;2022-10-26T05:43:03;15.30;99.90
27978;DHT22;15314;49.248;6.968;2022-10-26T05:44:04;15.30;99.90
27978;DHT22;15314;49.248;6.968;2022-10-26T05:45:05;15.30;99.90
27978;DHT22;15314;49.248;6.968;2022-10-26T05:46:06;15.40;99.90
27978;DHT22;15314;49.248;6.968;2022-10-26T05:47:06;15.40;99.90
27978;DHT22;15314;49.248;6.968;2022-10-26T05:48:07;15.50;99.90
27978;DHT22;15314;49.248;6.968;2022-10-26T05:49:07;15.50;99.90
27978;DHT22;15314;49.248;6.968;2022-10-26T05:50:09;15.50;99.90
27978;DHT22;15314;49.248;6.968;2022-10-26T05:51:10;15.50;99.90
27978;DHT22;15314;49.248;6.968;2022-10-26T05:52:11;15.50;99.90
27978;DHT22;15314;49.248;6.968;2022-10-26T05:53:12;15.50;99.90
27978;DHT22;15314;49.248;6.968;2022-10-26T05:54:13;15.50;99.90
27978;DHT22;15314;49.248;6.968;2022-10-26T05:55:15;15.50;99.90
27978;DHT22;15314;49.248;6.968;2022-10-26T05:56:18;15.50;99.90
27978;DHT22;15314;49.248;6.968;2022-10-26T05:57:20;15.60;99.90
27978;DHT22;15314;49.248;6.968;2022-10-26T05:58:21;15.60;99.90
27978;DHT22;15314;49.248;6.968;2022-10-26T05:59:22;15.60;99.90
27978;DHT22;15314;49.248;6.968;2022-10-26T06:00:25;15.60;99.90
27978;DHT22;15314;49.248;6.968;2022-10-26T06:02:44;15.60;99.90
27978;DHT22;15314;49.248;6.968;2022-10-26T06:05:02;15.70;99.90
27978;DHT22;15314;49.248;6.968;2022-10-26T06:06:03;15.70;99.90
27978;DHT22;15314;49.248;6.968;2022-10-26T06:07:18;15.70;99.90
27978;DHT22;15314;49.248;6.968;2022-10-26T06:08:23;15.70;99.90
27978;DHT22;15314;49.248;6.968;2022-10-26T06:09:25;15.70;99.90
27978;DHT22;15314;49.248;6.968;2022-10-26T06:10:26;15.70;99.90
27978;DHT22;15314;49.248;6.968;2022-10-26T06:11:27;15.80;99.90
27978;DHT22;15314;49.248;6.968;2022-10-26T06:12:27;15.80;99.90
27978;DHT22;15314;49.248;6.968;2022-10-26T06:13:28;15.80;99.90
27978;DHT22;15314;49.248;6.968;2022-10-26T06:14:29;15.80;99.90
27978;DHT22;15314;49.248;6.968;2022-10-26T06:15:36;15.80;99.90
27978;DHT22;15314;49.248;6.968;2022-10-26T06:18:19;15.90;99.90
27978;DHT22;15314;49.248;6.968;2022-10-26T06:23:31;16.00;99.90
27978;DHT22;15314;49.248;6.968;2022-10-26T06:30:09;16.10;99.90
27978;DHT22;15314;49.248;6.968;2022-10-26T06:31:12;16.10;99.90
27978;DHT22;15314;49.248;6.968;2022-10-26T06:32:13;16.00;99.90
27978;DHT22;15314;49.248;6.968;2022-10-26T06:33:14;16.00;99.90
27978;DHT22;15314;49.248;6.968;2022-10-26T06:34:22;16.00;99.90
27978;DHT22;15314;49.248;6.968;2022-10-26T06:36:40;16.00;99.90
27978;DHT22;15314;49.248;6.968;2022-10-26T06:37:43;16.00;99.90
27978;DHT22;15314;49.248;6.968;2022-10-26T06:38:46;16.00;99.90
27978;DHT22;15314;49.248;6.968;2022-10-26T06:39:48;16.00;99.90
27978;DHT22;15314;49.248;6.968;2022-10-26T06:40:51;16.10;99.90
27978;DHT22;15314;49.248;6.968;2022-10-26T06:41:56;16.10;99.90
27978;DHT22;15314;49.248;6.968;2022-10-26T06:42:57;16.10;99.90
27978;DHT22;15314;49.248;6.968;2022-10-26T06:43:58;16.20;99.90
27978;DHT22;15314;49.248;6.968;2022-10-26T06:44:59;16.30;99.90
27978;DHT22;15314;49.248;6.968;2022-10-26T06:47:50;16.60;99.90
27978;DHT22;15314;49.248;6.968;2022-10-26T06:48:58;16.70;99.90
27978;DHT22;15314;49.248;6.968;2022-10-26T06:51:00;17.00;99.90
27978;DHT22;15314;49.248;6.968;2022-10-26T06:52:11;17.00;99.90
27978;DHT22;15314;49.248;6.968;2022-10-26T06:53:35;17.10;99.90
27978;DHT22;15314;49.248;6.968;2022-10-26T06:55:45;17.50;99.90
27978;DHT22;15314;49.248;6.968;2022-10-26T06:56:46;17.70;99.80
27978;DHT22;15314;49.248;6.968;2022-10-26T06:57:47;17.70;99.50
27978;DHT22;15314;49.248;6.968;2022-10-26T06:58:49;17.80;99.50
27978;DHT22;15314;49.248;6.968;2022-10-26T06:59:52;17.60;99.30
27978;DHT22;15314;49.248;6.968;2022-10-26T07:00:55;17.50;99.60
27978;DHT22;15314;49.248;6.968;2022-10-26T07:01:56;17.30;99.80
27978;DHT22;15314;49.248;6.968;2022-10-26T07:02:57;17.30;99.90
27978;DHT22;15314;49.248;6.968;2022-10-26T07:03:59;17.10;99.90
27978;DHT22;15314;49.248;6.968;2022-10-26T07:04:59;17.00;99.90
27978;DHT22;15314;49.248;6.968;2022-10-26T07:06:00;17.00;99.90
27978;DHT22;15314;49.248;6.968;2022-10-26T07:07:00;17.10;99.90
27978;DHT22;15314;49.248;6.968;2022-10-26T07:08:01;17.10;99.90
27978;DHT22;15314;49.248;6.968;2022-10-26T07:09:02;17.10;99.90
27978;DHT22;15314;49.248;6.968;2022-10-26T07:10:02;17.30;99.90
27978;DHT22;15314;49.248;6.968;2022-10-26T07:11:03;17.20;99.90
27978;DHT22;15314;49.248;6.968;2022-10-26T07:12:05;17.30;99.90
27978;DHT22;15314;49.248;6.968;2022-10-26T07:13:06;17.20;99.80
27978;DHT22;15314;49.248;6.968;2022-10-26T07:14:07;17.30;99.80
27978;DHT22;15314;49.248;6.968;2022-10-26T07:15:08;17.20;99.90
27978;DHT22;15314;49.248;6.968;2022-10-26T07:16:08;17.20;99.90
27978;DHT22;15314;49.248;6.968;2022-10-26T07:17:09;17.20;99.90
27978;DHT22;15314;49.248;6.968;2022-10-26T07:18:10;17.20;99.90
27978;DHT22;15314;49.248;6.968;2022-10-26T07:19:11;17.20;99.90
27978;DHT22;15314;49.248;6.968;2022-10-26T07:20:12;17.20;99.90
27978;DHT22;15314;49.248;6.968;2022-10-26T07:21:12;17.20;99.80
27978;DHT22;15314;49.248;6.968;2022-10-26T07:22:13;17.40;99.80